Time;durP1;ratioP1;P1;durP2;ratioP2;P2;SDS_P1;SDS_P2;PMS_P1;PMS_P2;Temp;Humidity;BMP_temperature;BMP_pressure;BME280_temperature;BME280_humidity;BME280_pressure;Samples;Min_cycle;Max_cycle;Signal;HPM_P1;HPM_P2
2022/02/16 00:02:52;;;;;;;1999.90;999.90;;;;;;;7.38;62.57;100213.53;15641625;28;20052;-61
2022/02/16 00:10:27;;;;;;;1999.90;999.90;;;;;;;7.26;62.64;100216.94;15671124;28;20148;-61
2022/02/16 00:17:59;;;;;;;1999.90;999.90;;;;;;;7.27;62.72;100223.28;15653698;28;20118;-61
2022/02/16 00:25:32;;;;;;;1999.90;999.90;;;;;;;7.50;62.02;100203.44;15671909;28;20052;-60
2022/02/16 00:33:04;;;;;;;1999.90;999.90;;;;;;;7.46;62.22;100194.09;15670254;28;20071;-59
2022/02/16 00:40:40;;;;;;;1999.90;999.90;;;;;;;7.56;62.30;100189.38;15636716;28;20055;-60
2022/02/16 00:48:16;;;;;;;1999.90;999.90;;;;;;;7.40;63.04;100197.34;15669684;28;20146;-59
2022/02/16 00:55:49;;;;;;;1999.90;999.90;;;;;;;7.26;65.01;100189.19;15638672;28;20045;-60
2022/02/16 01:03:26;;;;;;;1999.90;999.90;;;;;;;7.06;66.68;100185.06;15692703;28;20051;-60
2022/02/16 01:11:00;;;;;;;1999.90;999.90;;;;;;;6.95;67.90;100165.13;15633795;28;20526;-59
2022/02/16 01:18:32;;;;;;;1999.90;999.90;;;;;;;6.89;68.81;100162.81;15657719;28;20041;-60
2022/02/16 01:26:17;;;;;;;1999.90;999.90;;;;;;;6.70;70.58;100153.94;15658208;28;20049;-61
2022/02/16 01:33:59;;;;;;;1999.90;999.90;;;;;;;6.51;71.85;100141.16;15660486;28;20037;-58
2022/02/16 01:41:34;;;;;;;1999.90;999.90;;;;;;;6.63;72.49;100126.69;15659066;28;20107;-61
2022/02/16 01:49:23;;;;;;;1999.90;999.90;;;;;;;6.51;73.59;100107.88;15661148;28;20047;-60
2022/02/16 01:57:07;;;;;;;1999.90;999.90;;;;;;;6.57;74.24;100097.50;15643546;28;20072;-60
2022/02/16 02:04:46;;;;;;;1999.90;999.90;;;;;;;6.43;74.69;100085.69;15660280;28;20124;-61
2022/02/16 02:12:22;;;;;;;1999.90;999.90;;;;;;;6.49;75.60;100076.09;15642857;28;20329;-61
2022/02/16 02:19:55;;;;;;;1999.90;999.90;;;;;;;6.39;76.06;100057.81;15658370;28;20037;-61
2022/02/16 02:27:28;;;;;;;1999.90;999.90;;;;;;;6.62;75.85;100059.34;15659176;28;20048;-61
2022/02/16 02:35:06;;;;;;;1999.90;999.90;;;;;;;6.57;75.57;100047.59;15636073;28;20098;-60
2022/02/16 02:42:40;;;;;;;1999.90;999.90;;;;;;;6.53;76.35;100030.78;15651111;28;20443;-60
2022/02/16 02:50:15;;;;;;;1999.90;999.90;;;;;;;6.47;76.73;100009.91;15659056;28;20045;-59
2022/02/16 02:57:51;;;;;;;1999.90;999.90;;;;;;;6.44;76.54;99995.88;15657792;28;20468;-60
2022/02/16 03:05:24;;;;;;;1999.90;999.90;;;;;;;6.53;76.12;99983.66;15657807;28;20394;-59
2022/02/16 03:13:02;;;;;;;1999.90;999.90;;;;;;;6.59;76.07;99976.81;15656994;28;20079;-60
2022/02/16 03:20:46;;;;;;;1999.90;999.90;;;;;;;6.57;75.76;99967.22;15639678;28;20120;-60
2022/02/16 03:28:22;;;;;;;1999.90;999.90;;;;;;;6.74;75.20;99955.28;15649706;28;20048;-61
2022/02/16 03:36:19;;;;;;;1999.90;999.90;;;;;;;6.85;74.60;99939.97;15666966;28;20055;-59
2022/02/16 03:43:59;;;;;;;1999.90;999.90;;;;;;;6.91;73.87;99931.16;15617959;28;20049;-61
2022/02/16 03:51:40;;;;;;;1999.90;999.90;;;;;;;6.98;73.40;99922.31;15655535;28;20049;-58
2022/02/16 03:59:17;;;;;;;1999.90;999.90;;;;;;;6.95;73.63;99926.56;15655365;28;20470;-58
2022/02/16 04:07:28;;;;;;;1999.90;999.90;;;;;;;7.05;73.18;99914.31;15497703;28;20053;-55
2022/02/16 04:15:05;;;;;;;1999.90;999.90;;;;;;;6.81;73.83;99891.84;15624523;22;20056;-59
2022/02/16 04:22:42;;;;;;;1999.90;999.90;;;;;;;7.14;73.35;99897.69;15605652;28;20048;-58
2022/02/16 04:30:18;;;;;;;1999.90;999.90;;;;;;;7.14;73.55;99900.44;15621847;28;20045;-60
2022/02/16 04:37:53;;;;;;;1999.90;999.90;;;;;;;7.13;73.37;99899.63;15626854;28;20344;-59
2022/02/16 04:45:27;;;;;;;1999.90;999.90;;;;;;;7.33;73.04;99887.00;15654948;28;20051;-61
2022/02/16 04:52:59;;;;;;;1999.90;999.90;;;;;;;7.35;72.67;99872.81;15623601;28;20356;-60
2022/02/16 05:00:41;;;;;;;1999.90;999.90;;;;;;;7.54;72.15;99859.34;15628503;28;20403;-59
2022/02/16 05:08:24;;;;;;;1999.90;999.90;;;;;;;7.48;72.25;99863.44;15632049;28;20046;-60
2022/02/16 05:15:58;;;;;;;1999.90;999.90;;;;;;;7.50;72.59;99855.59;15597770;28;20067;-59
2022/02/16 05:23:39;;;;;;;1999.90;999.90;;;;;;;7.50;72.51;99853.66;15581739;28;20060;-60
2022/02/16 05:31:18;;;;;;;1999.90;999.90;;;;;;;7.68;71.98;99851.59;15597098;28;20332;-59
2022/02/16 05:38:53;;;;;;;1999.90;999.90;;;;;;;7.41;72.73;99852.06;15603742;28;20067;-61
2022/02/16 05:46:29;;;;;;;1999.90;999.90;;;;;;;7.66;72.06;99848.34;15647658;28;20030;-61
2022/02/16 05:54:20;;;;;;;1999.90;999.90;;;;;;;7.62;72.06;99846.56;15635568;28;20070;-61
2022/02/16 06:01:55;;;;;;;1999.90;999.90;;;;;;;7.57;72.85;99838.41;15610447;28;20071;-60
2022/02/16 06:09:28;;;;;;;1999.90;999.90;;;;;;;7.37;73.82;99829.69;15612248;28;20053;-61
2022/02/16 06:17:05;;;;;;;1999.90;999.90;;;;;;;7.42;74.08;99812.06;15623368;28;20547;-61
2022/02/16 06:24:43;;;;;;;1999.90;999.90;;;;;;;7.48;73.94;99803.19;15644446;28;20571;-61
2022/02/16 06:32:19;;;;;;;1999.90;999.90;;;;;;;7.49;74.31;99804.81;15596472;28;20049;-59
2022/02/16 06:39:53;;;;;;;1999.90;999.90;;;;;;;7.19;75.23;99794.81;15593271;28;20398;-60
2022/02/16 06:47:28;;;;;;;1999.90;999.90;;;;;;;7.38;75.20;99775.81;15632012;28;20440;-61
2022/02/16 06:55:09;;;;;;;1999.90;999.90;;;;;;;7.28;76.26;99767.03;15611582;28;20072;-61
2022/02/16 07:02:45;;;;;;;1999.90;999.90;;;;;;;7.19;76.67;99748.50;15597548;28;20363;-61
2022/02/16 07:10:19;;;;;;;1999.90;999.90;;;;;;;7.17;76.96;99719.44;15643850;28;20498;-59
2022/02/16 07:17:57;;;;;;;1999.90;999.90;;;;;;;7.21;77.25;99712.09;15647660;28;20038;-61
2022/02/16 07:25:42;;;;;;;1999.90;999.90;;;;;;;7.25;76.81;99693.63;15647682;28;20068;-61
2022/02/16 07:33:17;;;;;;;1999.90;999.90;;;;;;;7.47;76.45;99700.81;15616811;28;20038;-61
2022/02/16 07:40:52;;;;;;;1999.90;999.90;;;;;;;7.34;76.55;99674.94;15582312;28;20037;-61
2022/02/16 07:48:29;;;;;;;1999.90;999.90;;;;;;;7.29;76.91;99682.66;15591598;28;20530;-61
2022/02/16 07:56:02;;;;;;;1999.90;999.90;;;;;;;7.53;76.40;99668.94;15942757;22;20071;-61
2022/02/16 08:03:37;;;;;;;1999.90;999.90;;;;;;;7.30;77.14;99674.00;15738163;28;20052;-60
2022/02/16 08:11:09;;;;;;;1999.90;999.90;;;;;;;7.51;76.84;99660.97;15726788;22;20120;-62
2022/02/16 08:18:42;;;;;;;1999.90;999.90;;;;;;;7.40;76.72;99618.13;15649511;28;20061;-63
2022/02/16 08:26:16;;;;;;;1999.90;999.90;;;;;;;7.67;76.40;99588.97;15610220;28;20049;-63
2022/02/16 08:33:51;;;;;;;1999.90;999.90;;;;;;;7.80;75.87;99584.25;15572796;28;20103;-63
2022/02/16 08:41:23;;;;;;;1999.90;999.90;;;;;;;8.05;74.81;99568.50;15585439;28;20107;-63
2022/02/16 08:57:11;;;;;;;1999.90;999.90;;;;;;;8.26;73.34;99548.97;15618720;28;20382;-63
2022/02/16 09:04:48;;;;;;;1999.90;999.90;;;;;;;8.14;74.28;99541.44;15600395;28;20037;-62
2022/02/16 09:12:25;;;;;;;1999.90;999.90;;;;;;;8.24;74.24;99518.75;15598301;28;20056;-62
2022/02/16 09:19:59;;;;;;;1999.90;999.90;;;;;;;8.15;74.51;99501.38;15615395;28;20124;-60
2022/02/16 09:36:43;;;;;;;1999.90;999.90;;;;;;;8.29;76.26;99451.00;15618783;28;20103;-59
2022/02/16 09:44:18;;;;;;;1999.90;999.90;;;;;;;8.19;76.88;99438.38;15600200;28;20156;-60
2022/02/16 09:51:53;;;;;;;1999.90;999.90;;;;;;;8.26;77.72;99418.34;15616386;28;20375;-60
2022/02/16 09:59:25;;;;;;;1999.90;999.90;;;;;;;8.07;77.97;99413.38;15616666;28;20502;-61
2022/02/16 10:07:01;;;;;;;1999.90;999.90;;;;;;;8.13;78.61;99400.88;15597967;28;20071;-61
2022/02/16 10:14:36;;;;;;;1999.90;999.90;;;;;;;7.98;79.39;99396.81;15580808;28;20077;-61
2022/02/16 10:22:09;;;;;;;1999.90;999.90;;;;;;;7.98;80.25;99394.03;15596836;28;20128;-61
2022/02/16 10:29:44;;;;;;;1999.90;999.90;;;;;;;7.79;80.73;99385.47;15596934;28;20060;-60
2022/02/16 10:37:40;;;;;;;1999.90;999.90;;;;;;;7.91;80.98;99348.56;15614835;28;20047;-61
2022/02/16 10:45:17;;;;;;;1999.90;999.90;;;;;;;7.80;81.53;99323.22;15580168;28;20048;-60
2022/02/16 10:52:53;;;;;;;1999.90;999.90;;;;;;;7.88;81.83;99294.53;15613334;28;20413;-59
2022/02/16 11:00:29;;;;;;;1999.90;999.90;;;;;;;7.97;82.10;99277.75;15578514;28;20045;-61
2022/02/16 11:08:05;;;;;;;1999.90;999.90;;;;;;;8.09;82.13;99241.59;15612813;28;20065;-59
2022/02/16 11:15:39;;;;;;;1999.90;999.90;;;;;;;8.21;81.06;99216.53;15578084;28;20111;-58
2022/02/16 11:23:14;;;;;;;1999.90;999.90;;;;;;;8.09;81.79;99189.63;15593967;28;20045;-60
2022/02/16 11:30:48;;;;;;;1999.90;999.90;;;;;;;8.38;82.14;99204.34;15579769;28;20133;-59
2022/02/16 11:38:24;;;;;;;1999.90;999.90;;;;;;;8.32;82.08;99172.38;15587097;28;20045;-61
2022/02/16 11:46:03;;;;;;;1999.90;999.90;;;;;;;8.23;83.24;99157.84;15641272;28;20051;-59
2022/02/16 11:53:39;;;;;;;1999.90;999.90;;;;;;;8.09;85.01;99125.72;15612063;28;20461;-59
2022/02/16 12:01:18;;;;;;;1999.90;999.90;;;;;;;8.03;85.47;99101.34;15588638;28;20135;-59
2022/02/16 12:09:07;;;;;;;1999.90;999.90;;;;;;;8.26;85.18;99088.47;15591049;28;20433;-60
2022/02/16 12:16:42;;;;;;;1999.90;999.90;;;;;;;8.48;85.51;99061.28;15574576;28;20532;-61
2022/02/16 12:24:19;;;;;;;1999.90;999.90;;;;;;;8.73;85.18;99050.75;15608286;28;20045;-58
2022/02/16 12:31:55;;;;;;;1999.90;999.90;;;;;;;8.58;85.08;99047.63;15606678;28;20045;-60
2022/02/16 12:39:30;;;;;;;1999.90;999.90;;;;;;;8.69;84.41;99034.00;15649158;28;20069;-62
2022/02/16 12:47:13;;;;;;;1999.90;999.90;;;;;;;8.92;83.26;99004.31;15587987;28;20422;-59
2022/02/16 12:54:49;;;;;;;1999.90;999.90;;;;;;;9.18;82.26;98998.16;15596903;28;20041;-57
2022/02/16 13:02:26;;;;;;;1999.90;999.90;;;;;;;9.21;81.71;98961.22;15619423;28;20045;-57
2022/02/16 13:10:11;;;;;;;1999.90;999.90;;;;;;;9.48;80.91;98964.13;15600611;28;20069;-59
2022/02/16 13:18:00;;;;;;;1999.90;999.90;;;;;;;9.61;79.63;98939.75;15617230;28;20050;-61
2022/02/16 13:25:53;;;;;;;1999.90;999.90;;;;;;;9.67;78.99;98902.84;15617147;28;20042;-59
2022/02/16 13:33:29;;;;;;;1999.90;999.90;;;;;;;9.83;78.06;98936.16;15594810;28;20049;-57
2022/02/16 13:41:09;;;;;;;1999.90;999.90;;;;;;;10.17;76.82;98922.38;15575626;28;20611;-57
2022/02/16 13:48:44;;;;;;;1999.90;999.90;;;;;;;10.02;76.12;98922.16;15583286;28;20146;-59
2022/02/16 13:56:54;;;;;;;1999.90;999.90;;;;;;;10.38;75.65;98915.19;15596239;28;20124;-60
2022/02/16 14:04:33;;;;;;;1999.90;999.90;;;;;;;10.37;75.51;98923.94;15595675;28;20041;-59
2022/02/16 14:12:36;;;;;;;1999.90;999.90;;;;;;;10.62;75.40;98927.88;15596847;28;20034;-63
2022/02/16 14:20:10;;;;;;;1999.90;999.90;;;;;;;10.54;74.59;98922.59;15595896;28;20098;-63
2022/02/16 14:27:49;;;;;;;1999.90;999.90;;;;;;;10.78;74.51;98913.78;15599084;28;20045;-62
2022/02/16 14:35:57;;;;;;;1999.90;999.90;;;;;;;11.29;73.38;98929.97;15613235;28;20065;-63
2022/02/16 14:43:34;;;;;;;1999.90;999.90;;;;;;;11.09;73.57;98909.00;15612205;28;20053;-63
2022/02/16 14:51:06;;;;;;;1999.90;999.90;;;;;;;11.05;73.65;98883.03;15611145;28;20529;-64
2022/02/16 14:58:39;;;;;;;1999.90;999.90;;;;;;;11.08;73.72;98871.09;15593366;28;20395;-64
2022/02/16 15:06:12;;;;;;;1999.90;999.90;;;;;;;11.22;73.68;98894.38;15592858;28;20297;-64
2022/02/16 15:13:54;;;;;;;1999.90;999.90;;;;;;;11.38;73.74;98871.84;15577247;28;20053;-64
2022/02/16 15:21:29;;;;;;;1999.90;999.90;;;;;;;11.43;73.27;98884.63;15592896;28;20053;-63
2022/02/16 15:29:05;;;;;;;1999.90;999.90;;;;;;;11.61;73.03;98873.66;15609475;28;20372;-64
2022/02/16 15:36:48;;;;;;;1999.90;999.90;;;;;;;11.53;74.37;98861.59;15592133;28;20054;-63
2022/02/16 15:44:27;;;;;;;1999.90;999.90;;;;;;;11.53;74.12;98872.78;15598433;28;20128;-64
2022/02/16 15:52:00;;;;;;;1999.90;999.90;;;;;;;11.41;75.61;98889.81;15609022;28;20069;-64
2022/02/16 15:59:41;;;;;;;1999.90;999.90;;;;;;;11.30;77.00;98914.03;15590367;28;20048;-63
2022/02/16 16:07:16;;;;;;;1999.90;999.90;;;;;;;11.41;77.44;98909.34;15608307;28;20120;-64
2022/02/16 16:15:11;;;;;;;1999.90;999.90;;;;;;;11.16;78.60;98887.56;15606485;28;20081;-63
2022/02/16 16:22:43;;;;;;;1999.90;999.90;;;;;;;11.23;78.64;98876.44;15614170;28;20597;-63
2022/02/16 16:30:18;;;;;;;1999.90;999.90;;;;;;;11.37;77.59;98849.88;15598461;28;20046;-61
2022/02/16 16:37:50;;;;;;;1999.90;999.90;;;;;;;11.31;78.19;98852.22;15594133;28;20049;-62
2022/02/16 16:45:24;;;;;;;1999.90;999.90;;;;;;;11.31;79.38;98827.09;15608636;28;20174;-64
2022/02/16 16:52:56;;;;;;;1999.90;999.90;;;;;;;11.29;78.93;98801.53;15604581;28;20042;-64
2022/02/16 17:00:30;;;;;;;1999.90;999.90;;;;;;;11.44;77.84;98796.88;15587988;28;20506;-63
2022/02/16 17:08:02;;;;;;;;;;;;;;;11.80;76.27;98793.25;15589519;28;20034;-63
2022/02/16 17:15:36;;;;;;;1999.90;999.90;;;;;;;11.77;75.60;98765.22;15608601;28;20031;-62
2022/02/16 17:23:19;;;;;;;1999.90;999.90;;;;;;;11.96;74.63;98784.56;15644079;28;20491;-63
2022/02/16 17:30:52;;;;;;;1999.90;999.90;;;;;;;11.89;74.37;98784.53;15590174;28;20107;-63
2022/02/16 17:38:37;;;;;;;1999.90;999.90;;;;;;;12.13;73.49;98771.91;15588312;28;20055;-62
2022/02/16 17:46:11;;;;;;;;;;;;;;;12.29;73.11;98783.56;15584208;28;20064;-63
2022/02/16 17:53:53;;;;;;;;;;;;;;;12.32;73.39;98776.41;15613543;28;19964;-63
2022/02/16 18:01:27;;;;;;;1999.90;999.90;;;;;;;12.13;74.10;98767.09;15607244;28;19921;-62
2022/02/16 18:08:59;;;;;;;1999.90;999.90;;;;;;;12.40;73.42;98752.84;15627297;28;20037;-60
2022/02/16 18:16:33;;;;;;;1999.90;999.90;;;;;;;12.31;74.28;98758.03;15623652;28;20048;-60
2022/02/16 18:24:07;;;;;;;1999.90;999.90;;;;;;;12.52;73.44;98760.13;15589679;28;20061;-63
2022/02/16 18:31:41;;;;;;;1999.90;999.90;;;;;;;12.46;73.33;98708.53;15593645;28;20038;-62
2022/02/16 18:39:13;;;;;;;1999.90;999.90;;;;;;;12.45;74.03;98702.13;15597846;28;20041;-62
2022/02/16 18:46:47;;;;;;;1999.90;999.90;;;;;;;12.51;73.79;98652.22;15598712;28;20493;-62
2022/02/16 18:54:23;;;;;;;1999.90;999.90;;;;;;;12.56;74.13;98635.03;15586297;28;20132;-62
2022/02/16 19:01:58;;;;;;;1999.90;999.90;;;;;;;12.61;73.75;98655.03;15602872;28;20428;-62
2022/02/16 19:09:31;;;;;;;1999.90;999.90;;;;;;;12.66;73.41;98663.03;15603177;28;20077;-62
2022/02/16 19:17:07;;;;;;;1999.90;999.90;;;;;;;12.61;73.74;98648.63;15577232;28;20402;-62
2022/02/16 19:24:56;;;;;;;1999.90;999.90;;;;;;;12.57;73.81;98631.84;15610677;28;20045;-62
2022/02/16 19:32:33;;;;;;;1999.90;999.90;;;;;;;12.88;73.22;98635.09;15591354;28;20045;-57
2022/02/16 19:40:07;;;;;;;1999.90;999.90;;;;;;;12.73;73.71;98620.28;15596056;28;20403;-56
2022/02/16 19:47:56;;;;;;;1999.90;999.90;;;;;;;12.98;72.90;98590.28;15597482;28;20463;-60
2022/02/16 19:55:32;;;;;;;1999.90;999.90;;;;;;;12.76;73.41;98587.91;15585232;28;20529;-58
2022/02/16 20:03:07;;;;;;;1999.90;999.90;;;;;;;12.91;73.03;98550.31;15580889;28;20037;-58
2022/02/16 20:10:41;;;;;;;1999.90;999.90;;;;;;;12.87;73.32;98519.53;15609910;22;20049;-55
2022/02/16 20:18:15;;;;;;;1999.90;999.90;;;;;;;12.94;72.87;98485.16;15627059;28;20121;-55
2022/02/16 20:25:49;;;;;;;1999.90;999.90;;;;;;;13.12;72.27;98491.50;15644875;28;20072;-51
2022/02/16 20:33:22;;;;;;;1999.90;999.90;;;;;;;13.12;72.08;98455.09;15636665;28;20069;-56
2022/02/16 20:40:54;;;;;;;1999.90;999.90;;;;;;;13.14;71.66;98435.13;15622052;28;20084;-55
2022/02/16 20:48:30;;;;;;;1999.90;999.90;;;;;;;13.11;71.60;98396.72;15586082;28;20049;-51
2022/02/16 20:56:03;;;;;;;1999.90;999.90;;;;;;;13.28;70.92;98368.66;15605046;28;20099;-56
2022/02/16 21:03:36;;;;;;;1999.90;999.90;;;;;;;13.34;70.48;98349.44;15562879;28;20048;-57
2022/02/16 21:11:09;;;;;;;1999.90;999.90;;;;;;;13.32;70.39;98303.44;15603764;28;20156;-57
2022/02/16 21:18:44;;;;;;;1999.90;999.90;;;;;;;13.46;69.79;98276.16;15630513;28;20084;-55
2022/02/16 21:26:17;;;;;;;1999.90;999.90;;;;;;;13.42;70.43;98246.56;15603650;28;20423;-56
2022/02/16 21:33:52;;;;;;;1999.90;999.90;;;;;;;13.39;71.26;98239.78;15629425;28;20049;-56
2022/02/16 21:41:23;;;;;;;;;;;;;;;13.57;71.10;98206.03;15596586;28;20056;-57
2022/02/16 21:48:57;;;;;;;1999.90;999.90;;;;;;;13.39;72.12;98152.16;15622952;28;19925;-58
2022/02/16 21:56:35;;;;;;;1999.90;999.90;;;;;;;13.29;72.48;98146.25;15644886;28;20133;-58
2022/02/16 22:04:29;;;;;;;1999.90;999.90;;;;;;;13.25;73.03;98108.28;15623563;28;20539;-56
2022/02/16 22:20:03;;;;;;;1999.90;999.90;;;;;;;13.25;72.98;98055.88;15625786;28;20076;-60
2022/02/16 22:27:52;;;;;;;1999.90;999.90;;;;;;;13.06;74.77;98048.03;15614556;28;20370;-56
2022/02/16 22:36:00;;;;;;;1999.90;999.90;;;;;;;13.07;76.69;98032.03;15615018;28;20045;-57
2022/02/16 22:43:32;;;;;;;1999.90;999.90;;;;;;;12.85;78.14;98037.81;15615803;28;20091;-58
2022/02/16 22:51:09;;;;;;;1999.90;999.90;;;;;;;13.19;76.68;97995.94;15596067;28;20046;-57
2022/02/16 22:58:54;;;;;;;1999.90;999.90;;;;;;;13.41;75.14;97931.28;15593164;28;20402;-60
2022/02/16 23:14:47;;;;;;;1999.90;999.90;;;;;;;14.01;73.35;97950.09;15563815;28;20045;-59
2022/02/16 23:22:29;;;;;;;1999.90;999.90;;;;;;;14.04;72.96;97887.56;15613275;28;20042;-59
2022/02/16 23:30:13;;;;;;;1999.90;999.90;;;;;;;14.16;72.74;97866.53;15613921;28;20075;-59
2022/02/16 23:38:19;;;;;;;1999.90;999.90;;;;;;;14.24;73.53;97853.19;15593544;28;20396;-58
2022/02/16 23:45:56;;;;;;;1999.90;999.90;;;;;;;14.27;73.67;97863.56;15610673;28;20391;-57
2022/02/16 23:53:46;;;;;;;1999.90;999.90;;;;;;;14.52;72.73;97832.31;15592974;28;20052;-59
